sensor_id;sensor_type;location;lat;lon;timestamp;pressure;altitude;pressure_sealevel;temperature;humidity
72086;BME280;64750;52.134;5.424;2023-02-26T00:00:06;102138.94;;;2.72;71.12
72086;BME280;64750;52.134;5.424;2023-02-26T00:02:37;102147.56;;;2.74;70.51
72086;BME280;64750;52.134;5.424;2023-02-26T00:05:05;102150.97;;;2.82;69.91
72086;BME280;64750;52.134;5.424;2023-02-26T00:07:31;102150.13;;;2.80;69.35
72086;BME280;64750;52.134;5.424;2023-02-26T00:09:58;102149.22;;;2.83;68.58
72086;BME280;64750;52.134;5.424;2023-02-26T00:12:27;102154.41;;;2.83;68.74
72086;BME280;64750;52.134;5.424;2023-02-26T00:14:54;102154.41;;;2.87;67.73
72086;BME280;64750;52.134;5.424;2023-02-26T00:20:07;102173.41;;;2.92;67.82
72086;BME280;64750;52.134;5.424;2023-02-26T00:22:34;102178.63;;;2.86;66.78
72086;BME280;64750;52.134;5.424;2023-02-26T00:25:01;102181.25;;;2.85;66.52
72086;BME280;64750;52.134;5.424;2023-02-26T00:27:27;102184.69;;;2.85;65.86
72086;BME280;64750;52.134;5.424;2023-02-26T00:29:54;102194.22;;;2.86;66.06
72086;BME280;64750;52.134;5.424;2023-02-26T00:32:21;102199.38;;;2.89;66.13
72086;BME280;64750;52.134;5.424;2023-02-26T00:34:48;102197.72;;;2.82;65.83
72086;BME280;64750;52.134;5.424;2023-02-26T00:42:20;102215.06;;;2.77;65.62
72086;BME280;64750;52.134;5.424;2023-02-26T00:44:47;102214.19;;;2.73;65.78
72086;BME280;64750;52.134;5.424;2023-02-26T00:47:28;102218.53;;;2.71;65.13
72086;BME280;64750;52.134;5.424;2023-02-26T00:53:13;102219.41;;;2.72;65.46
72086;BME280;64750;52.134;5.424;2023-02-26T00:55:43;102222.00;;;2.73;65.80
72086;BME280;64750;52.134;5.424;2023-02-26T00:58:09;102219.41;;;2.73;65.27
72086;BME280;64750;52.134;5.424;2023-02-26T01:00:36;102218.50;;;2.76;65.88
72086;BME280;64750;52.134;5.424;2023-02-26T01:03:02;102218.50;;;2.77;65.71
72086;BME280;64750;52.134;5.424;2023-02-26T01:05:29;102224.56;;;2.76;65.68
72086;BME280;64750;52.134;5.424;2023-02-26T01:08:15;102218.50;;;2.77;65.50
72086;BME280;64750;52.134;5.424;2023-02-26T01:10:45;102223.69;;;2.79;65.63
72086;BME280;64750;52.134;5.424;2023-02-26T01:13:11;102225.47;;;2.71;65.49
72086;BME280;64750;52.134;5.424;2023-02-26T01:15:42;102226.34;;;2.65;65.52
72086;BME280;64750;52.134;5.424;2023-02-26T01:18:14;102230.66;;;2.68;66.08
72086;BME280;64750;52.134;5.424;2023-02-26T01:20:55;102235.84;;;2.71;65.30
72086;BME280;64750;52.134;5.424;2023-02-26T01:23:30;102240.19;;;2.66;65.99
72086;BME280;64750;52.134;5.424;2023-02-26T01:26:00;102246.25;;;2.66;65.74
72086;BME280;64750;52.134;5.424;2023-02-26T01:28:29;102239.34;;;2.67;65.52
72086;BME280;64750;52.134;5.424;2023-02-26T01:30:58;102247.09;;;2.70;65.61
72086;BME280;64750;52.134;5.424;2023-02-26T01:36:18;102247.09;;;2.70;65.24
72086;BME280;64750;52.134;5.424;2023-02-26T01:38:53;102248.81;;;2.68;65.38
72086;BME280;64750;52.134;5.424;2023-02-26T01:41:42;102249.72;;;2.63;64.91
72086;BME280;64750;52.134;5.424;2023-02-26T01:44:41;102254.94;;;2.60;64.97
72086;BME280;64750;52.134;5.424;2023-02-26T01:47:20;102264.44;;;2.58;65.00
72086;BME280;64750;52.134;5.424;2023-02-26T01:49:49;102266.19;;;2.59;65.20
72086;BME280;64750;52.134;5.424;2023-02-26T01:55:16;102262.69;;;2.59;64.64
72086;BME280;64750;52.134;5.424;2023-02-26T01:57:44;102264.44;;;2.54;64.66
72086;BME280;64750;52.134;5.424;2023-02-26T02:00:10;102257.56;;;2.53;64.11
72086;BME280;64750;52.134;5.424;2023-02-26T02:02:37;102261.88;;;2.55;64.63
72086;BME280;64750;52.134;5.424;2023-02-26T02:05:11;102265.34;;;2.54;64.22
72086;BME280;64750;52.134;5.424;2023-02-26T02:07:39;102274.84;;;2.54;64.25
72086;BME280;64750;52.134;5.424;2023-02-26T02:10:06;102272.25;;;2.52;63.38
72086;BME280;64750;52.134;5.424;2023-02-26T02:12:50;102276.63;;;2.44;64.05
72086;BME280;64750;52.134;5.424;2023-02-26T02:18:34;102288.72;;;2.46;63.23
72086;BME280;64750;52.134;5.424;2023-02-26T02:23:42;102286.13;;;2.42;63.65
72086;BME280;64750;52.134;5.424;2023-02-26T02:37:26;102308.63;;;2.35;63.51
72086;BME280;64750;52.134;5.424;2023-02-26T02:40:08;102311.25;;;2.32;63.42
72086;BME280;64750;52.134;5.424;2023-02-26T02:42:42;102307.78;;;2.32;63.07
72086;BME280;64750;52.134;5.424;2023-02-26T02:45:17;102313.84;;;2.29;63.07
72086;BME280;64750;52.134;5.424;2023-02-26T02:47:48;102319.06;;;2.24;63.31
72086;BME280;64750;52.134;5.424;2023-02-26T02:50:24;102313.00;;;2.22;62.84
72086;BME280;64750;52.134;5.424;2023-02-26T02:53:30;102320.75;;;2.25;63.54
72086;BME280;64750;52.134;5.424;2023-02-26T02:56:06;102325.09;;;2.26;63.24
72086;BME280;64750;52.134;5.424;2023-02-26T02:58:39;102316.44;;;2.21;62.69
72086;BME280;64750;52.134;5.424;2023-02-26T03:01:11;102322.50;;;2.20;62.41
72086;BME280;64750;52.134;5.424;2023-02-26T03:06:25;102338.06;;;2.11;63.15
72086;BME280;64750;52.134;5.424;2023-02-26T03:08:52;102338.94;;;2.10;62.93
72086;BME280;64750;52.134;5.424;2023-02-26T03:11:19;102340.66;;;2.12;62.41
72086;BME280;64750;52.134;5.424;2023-02-26T03:13:46;102338.06;;;2.11;62.52
72086;BME280;64750;52.134;5.424;2023-02-26T03:22:02;102360.56;;;2.06;62.49
72086;BME280;64750;52.134;5.424;2023-02-26T03:24:45;102358.81;;;2.11;62.28
72086;BME280;64750;52.134;5.424;2023-02-26T03:27:25;102349.31;;;2.10;62.08
72086;BME280;64750;52.134;5.424;2023-02-26T03:30:06;102352.78;;;2.10;62.00
72086;BME280;64750;52.134;5.424;2023-02-26T03:33:00;102360.53;;;2.07;62.32
72086;BME280;64750;52.134;5.424;2023-02-26T03:35:52;102357.97;;;1.98;62.38
72086;BME280;64750;52.134;5.424;2023-02-26T03:38:42;102365.75;;;2.03;61.91
72086;BME280;64750;52.134;5.424;2023-02-26T03:41:20;102369.19;;;2.02;62.55
72086;BME280;64750;52.134;5.424;2023-02-26T03:43:54;102374.38;;;1.99;61.85
72086;BME280;64750;52.134;5.424;2023-02-26T03:46:28;102376.97;;;2.02;62.56
72086;BME280;64750;52.134;5.424;2023-02-26T03:48:57;102376.13;;;1.96;62.03
72086;BME280;64750;52.134;5.424;2023-02-26T03:51:25;102373.50;;;1.93;62.49
72086;BME280;64750;52.134;5.424;2023-02-26T03:53:59;102381.28;;;2.00;62.05
72086;BME280;64750;52.134;5.424;2023-02-26T03:56:32;102383.00;;;1.96;61.97
72086;BME280;64750;52.134;5.424;2023-02-26T03:59:01;102385.63;;;1.93;62.16
72086;BME280;64750;52.134;5.424;2023-02-26T04:01:32;102392.53;;;1.95;61.94
72086;BME280;64750;52.134;5.424;2023-02-26T04:04:06;102395.97;;;1.94;61.74
72086;BME280;64750;52.134;5.424;2023-02-26T04:06:35;102395.13;;;1.95;62.47
72086;BME280;64750;52.134;5.424;2023-02-26T04:09:03;102396.84;;;1.92;62.20
72086;BME280;64750;52.134;5.424;2023-02-26T04:11:30;102395.13;;;1.92;62.11
72086;BME280;64750;52.134;5.424;2023-02-26T04:13:57;102402.03;;;1.93;61.76
72086;BME280;64750;52.134;5.424;2023-02-26T04:16:24;102400.31;;;1.92;62.57
72086;BME280;64750;52.134;5.424;2023-02-26T04:18:51;102414.16;;;1.91;61.95
72086;BME280;64750;52.134;5.424;2023-02-26T04:21:20;102421.06;;;1.92;62.82
72086;BME280;64750;52.134;5.424;2023-02-26T04:23:48;102415.88;;;1.97;62.51
72086;BME280;64750;52.134;5.424;2023-02-26T04:26:14;102419.31;;;1.93;61.77
72086;BME280;64750;52.134;5.424;2023-02-26T04:28:41;102423.63;;;1.89;62.39
72086;BME280;64750;52.134;5.424;2023-02-26T04:31:07;102427.97;;;1.89;62.01
72086;BME280;64750;52.134;5.424;2023-02-26T04:33:35;102427.13;;;1.90;62.63
72086;BME280;64750;52.134;5.424;2023-02-26T04:36:02;102435.75;;;1.89;62.71
72086;BME280;64750;52.134;5.424;2023-02-26T04:38:30;102439.19;;;1.91;62.14
72086;BME280;64750;52.134;5.424;2023-02-26T04:40:56;102440.94;;;1.87;62.07
72086;BME280;64750;52.134;5.424;2023-02-26T04:43:22;102446.94;;;1.83;62.21
72086;BME280;64750;52.134;5.424;2023-02-26T04:45:49;102446.97;;;1.78;62.54
72086;BME280;64750;52.134;5.424;2023-02-26T04:48:16;102446.94;;;1.83;62.45
72086;BME280;64750;52.134;5.424;2023-02-26T04:50:44;102447.84;;;1.82;62.12
72086;BME280;64750;52.134;5.424;2023-02-26T04:53:11;102448.66;;;1.78;62.81
72086;BME280;64750;52.134;5.424;2023-02-26T04:55:38;102453.00;;;1.80;62.01
72086;BME280;64750;52.134;5.424;2023-02-26T04:58:06;102459.91;;;1.83;62.33
72086;BME280;64750;52.134;5.424;2023-02-26T05:00:33;102459.03;;;1.75;62.49
72086;BME280;64750;52.134;5.424;2023-02-26T05:03:00;102454.72;;;1.80;62.33
72086;BME280;64750;52.134;5.424;2023-02-26T05:05:26;102473.72;;;1.80;62.37
72086;BME280;64750;52.134;5.424;2023-02-26T05:07:52;102476.31;;;1.73;62.20
72086;BME280;64750;52.134;5.424;2023-02-26T05:10:22;102478.91;;;1.70;62.60
72086;BME280;64750;52.134;5.424;2023-02-26T05:12:49;102481.50;;;1.70;62.61
72086;BME280;64750;52.134;5.424;2023-02-26T05:15:15;102480.63;;;1.72;62.87
72086;BME280;64750;52.134;5.424;2023-02-26T05:17:41;102485.78;;;1.66;62.44
72086;BME280;64750;52.134;5.424;2023-02-26T05:20:09;102486.69;;;1.68;62.34
72086;BME280;64750;52.134;5.424;2023-02-26T05:22:37;102493.56;;;1.66;62.63
72086;BME280;64750;52.134;5.424;2023-02-26T05:25:05;102496.16;;;1.63;62.71
72086;BME280;64750;52.134;5.424;2023-02-26T05:27:32;102497.88;;;1.58;62.75
72086;BME280;64750;52.134;5.424;2023-02-26T05:29:59;102497.88;;;1.61;62.35
72086;BME280;64750;52.134;5.424;2023-02-26T05:32:26;102497.88;;;1.58;62.48
72086;BME280;64750;52.134;5.424;2023-02-26T05:34:53;102504.78;;;1.62;62.47
72086;BME280;64750;52.134;5.424;2023-02-26T05:37:19;102505.66;;;1.64;62.99
72086;BME280;64750;52.134;5.424;2023-02-26T05:39:45;102510.81;;;1.56;62.55
72086;BME280;64750;52.134;5.424;2023-02-26T05:42:12;102520.31;;;1.53;62.22
72086;BME280;64750;52.134;5.424;2023-02-26T05:44:38;102523.72;;;1.47;62.44
72086;BME280;64750;52.134;5.424;2023-02-26T05:47:04;102526.31;;;1.45;62.54
72086;BME280;64750;52.134;5.424;2023-02-26T05:49:31;102529.75;;;1.46;62.77
72086;BME280;64750;52.134;5.424;2023-02-26T05:51:57;102534.09;;;1.44;62.89
72086;BME280;64750;52.134;5.424;2023-02-26T05:54:24;102534.03;;;1.41;62.62
72086;BME280;64750;52.134;5.424;2023-02-26T05:56:50;102542.72;;;1.40;63.30
72086;BME280;64750;52.134;5.424;2023-02-26T05:59:16;102546.16;;;1.42;63.10
72086;BME280;64750;52.134;5.424;2023-02-26T06:01:43;102552.19;;;1.41;63.32
72086;BME280;64750;52.134;5.424;2023-02-26T06:04:09;102553.06;;;1.40;63.01
72086;BME280;64750;52.134;5.424;2023-02-26T06:06:36;102550.44;;;1.34;62.55
72086;BME280;64750;52.134;5.424;2023-02-26T06:09:02;102558.22;;;1.37;62.93
72086;BME280;64750;52.134;5.424;2023-02-26T06:11:30;102559.06;;;1.36;62.89
72086;BME280;64750;52.134;5.424;2023-02-26T06:13:59;102563.38;;;1.35;62.63
72086;BME280;64750;52.134;5.424;2023-02-26T06:16:25;102572.91;;;1.36;63.49
72086;BME280;64750;52.134;5.424;2023-02-26T06:18:52;102569.41;;;1.33;63.21
72086;BME280;64750;52.134;5.424;2023-02-26T06:21:19;102572.91;;;1.35;62.68
72086;BME280;64750;52.134;5.424;2023-02-26T06:23:45;102578.03;;;1.31;62.56
72086;BME280;64750;52.134;5.424;2023-02-26T06:26:12;102581.47;;;1.30;63.25
72086;BME280;64750;52.134;5.424;2023-02-26T06:28:38;102582.31;;;1.26;62.62
72086;BME280;64750;52.134;5.424;2023-02-26T06:31:04;102581.41;;;1.18;63.14
72086;BME280;64750;52.134;5.424;2023-02-26T06:33:31;102587.44;;;1.17;62.98
72086;BME280;64750;52.134;5.424;2023-02-26T06:35:57;102590.03;;;1.17;63.15
72086;BME280;64750;52.134;5.424;2023-02-26T06:38:26;102596.97;;;1.18;62.95
72086;BME280;64750;52.134;5.424;2023-02-26T06:40:53;102596.13;;;1.22;63.14
72086;BME280;64750;52.134;5.424;2023-02-26T06:43:19;102601.19;;;1.11;62.69
72086;BME280;64750;52.134;5.424;2023-02-26T06:45:46;102600.34;;;1.14;62.85
72086;BME280;64750;52.134;5.424;2023-02-26T06:48:12;102610.72;;;1.14;62.65
72086;BME280;64750;52.134;5.424;2023-02-26T06:50:39;102611.63;;;1.18;63.23
72086;BME280;64750;52.134;5.424;2023-02-26T06:53:05;102609.94;;;1.23;62.71
72086;BME280;64750;52.134;5.424;2023-02-26T06:55:33;102622.81;;;1.12;63.15
72086;BME280;64750;52.134;5.424;2023-02-26T06:57:59;102618.50;;;1.14;62.95
72086;BME280;64750;52.134;5.424;2023-02-26T07:00:25;102629.66;;;1.07;63.24
72086;BME280;64750;52.134;5.424;2023-02-26T07:02:52;102639.13;;;1.05;63.56
72086;BME280;64750;52.134;5.424;2023-02-26T07:05:18;102640.09;;;1.13;63.48
72086;BME280;64750;52.134;5.424;2023-02-26T07:07:45;102640.06;;;1.11;63.52
72086;BME280;64750;52.134;5.424;2023-02-26T07:10:12;102646.97;;;1.14;63.66
72086;BME280;64750;52.134;5.424;2023-02-26T07:12:39;102655.63;;;1.16;63.51
72086;BME280;64750;52.134;5.424;2023-02-26T07:15:06;102655.63;;;1.13;63.47
72086;BME280;64750;52.134;5.424;2023-02-26T07:17:33;102662.56;;;1.17;63.70
72086;BME280;64750;52.134;5.424;2023-02-26T07:19:59;102671.19;;;1.19;64.03
72086;BME280;64750;52.134;5.424;2023-02-26T07:22:31;102672.09;;;1.20;64.00
72086;BME280;64750;52.134;5.424;2023-02-26T07:24:58;102672.91;;;1.17;63.93
72086;BME280;64750;52.134;5.424;2023-02-26T07:27:25;102674.63;;;1.15;63.70
72086;BME280;64750;52.134;5.424;2023-02-26T07:29:52;102679.78;;;1.15;63.96
72086;BME280;64750;52.134;5.424;2023-02-26T07:32:19;102674.59;;;1.12;64.25
72086;BME280;64750;52.134;5.424;2023-02-26T07:34:45;102678.97;;;1.18;64.71
72086;BME280;64750;52.134;5.424;2023-02-26T07:37:12;102679.78;;;1.15;64.21
72086;BME280;64750;52.134;5.424;2023-02-26T07:39:38;102687.56;;;1.17;64.81
72086;BME280;64750;52.134;5.424;2023-02-26T07:42:05;102685.81;;;1.14;64.59
72086;BME280;64750;52.134;5.424;2023-02-26T07:44:31;102696.25;;;1.19;64.99
72086;BME280;64750;52.134;5.424;2023-02-26T07:46:58;102685.03;;;1.21;64.99
72086;BME280;64750;52.134;5.424;2023-02-26T07:49:25;102695.41;;;1.23;64.35
72086;BME280;64750;52.134;5.424;2023-02-26T07:51:51;102694.56;;;1.27;64.68
72086;BME280;64750;52.134;5.424;2023-02-26T07:54:18;102693.72;;;1.29;64.74
72086;BME280;64750;52.134;5.424;2023-02-26T07:56:44;102696.31;;;1.29;64.62
72086;BME280;64750;52.134;5.424;2023-02-26T07:59:11;102708.41;;;1.29;64.23
72086;BME280;64750;52.134;5.424;2023-02-26T08:01:37;102704.09;;;1.29;64.48
72086;BME280;64750;52.134;5.424;2023-02-26T08:04:04;102709.31;;;1.34;64.63
72086;BME280;64750;52.134;5.424;2023-02-26T08:06:30;102712.75;;;1.30;64.58
72086;BME280;64750;52.134;5.424;2023-02-26T08:08:57;102703.22;;;1.29;64.86
72086;BME280;64750;52.134;5.424;2023-02-26T08:11:23;102719.63;;;1.29;64.35
72086;BME280;64750;52.134;5.424;2023-02-26T08:13:50;102723.97;;;1.29;64.80
72086;BME280;64750;52.134;5.424;2023-02-26T08:16:16;102728.31;;;1.31;64.89
72086;BME280;64750;52.134;5.424;2023-02-26T08:18:42;102734.38;;;1.37;64.68
72086;BME280;64750;52.134;5.424;2023-02-26T08:21:09;102740.47;;;1.37;65.33
72086;BME280;64750;52.134;5.424;2023-02-26T08:23:37;102747.41;;;1.43;64.81
72086;BME280;64750;52.134;5.424;2023-02-26T08:26:06;102750.00;;;1.46;65.09
72086;BME280;64750;52.134;5.424;2023-02-26T08:28:33;102748.31;;;1.50;65.27
72086;BME280;64750;52.134;5.424;2023-02-26T08:31:01;102747.47;;;1.49;64.92
72086;BME280;64750;52.134;5.424;2023-02-26T08:33:28;102756.09;;;1.50;65.07
72086;BME280;64750;52.134;5.424;2023-02-26T08:35:54;102763.03;;;1.54;65.35
72086;BME280;64750;52.134;5.424;2023-02-26T08:38:25;102763.91;;;1.54;65.01
72086;BME280;64750;52.134;5.424;2023-02-26T08:40:51;102767.41;;;1.58;64.59
72086;BME280;64750;52.134;5.424;2023-02-26T08:43:18;102770.03;;;1.64;65.19
72086;BME280;64750;52.134;5.424;2023-02-26T08:45:45;102767.47;;;1.67;64.06
72086;BME280;64750;52.134;5.424;2023-02-26T08:48:12;102768.34;;;1.69;63.69
72086;BME280;64750;52.134;5.424;2023-02-26T08:50:39;102770.13;;;1.75;63.12
72086;BME280;64750;52.134;5.424;2023-02-26T08:53:05;102778.81;;;1.78;62.78
72086;BME280;64750;52.134;5.424;2023-02-26T08:55:32;102771.94;;;1.82;62.49
72086;BME280;64750;52.134;5.424;2023-02-26T08:57:58;102777.97;;;1.86;62.49
72086;BME280;64750;52.134;5.424;2023-02-26T09:00:25;102784.06;;;1.88;61.41
72086;BME280;64750;52.134;5.424;2023-02-26T09:02:51;102784.94;;;1.90;60.73
72086;BME280;64750;52.134;5.424;2023-02-26T09:05:18;102785.81;;;1.93;61.62
72086;BME280;64750;52.134;5.424;2023-02-26T09:07:44;102791.91;;;1.99;60.29
72086;BME280;64750;52.134;5.424;2023-02-26T09:10:11;102800.63;;;2.05;61.35
72086;BME280;64750;52.134;5.424;2023-02-26T09:12:38;102798.03;;;2.07;59.45
72086;BME280;64750;52.134;5.424;2023-02-26T09:15:07;102801.53;;;2.12;58.66
72086;BME280;64750;52.134;5.424;2023-02-26T09:17:33;102799.81;;;2.16;58.39
72086;BME280;64750;52.134;5.424;2023-02-26T09:20:00;102802.47;;;2.23;58.36
72086;BME280;64750;52.134;5.424;2023-02-26T09:22:27;102801.63;;;2.30;58.19
72086;BME280;64750;52.134;5.424;2023-02-26T09:24:53;102799.91;;;2.33;57.58
72086;BME280;64750;52.134;5.424;2023-02-26T09:27:19;102801.66;;;2.34;57.17
72086;BME280;64750;52.134;5.424;2023-02-26T09:29:46;102793.88;;;2.37;58.07
72086;BME280;64750;52.134;5.424;2023-02-26T09:32:12;102799.09;;;2.41;57.30
72086;BME280;64750;52.134;5.424;2023-02-26T09:34:39;102806.91;;;2.46;58.41
72086;BME280;64750;52.134;5.424;2023-02-26T09:37:07;102806.94;;;2.51;58.25
72086;BME280;64750;52.134;5.424;2023-02-26T09:39:34;102811.28;;;2.55;59.26
72086;BME280;64750;52.134;5.424;2023-02-26T09:44:42;102814.72;;;2.54;57.78
72086;BME280;64750;52.134;5.424;2023-02-26T09:47:20;102816.50;;;2.59;57.87
72086;BME280;64750;52.134;5.424;2023-02-26T09:49:58;102807.00;;;2.65;58.00
72086;BME280;64750;52.134;5.424;2023-02-26T09:52:36;102819.13;;;2.69;58.08
72086;BME280;64750;52.134;5.424;2023-02-26T09:55:14;102815.72;;;2.76;57.65
72086;BME280;64750;52.134;5.424;2023-02-26T09:57:44;102820.91;;;2.79;56.47
72086;BME280;64750;52.134;5.424;2023-02-26T10:00:36;102824.41;;;2.84;57.23
72086;BME280;64750;52.134;5.424;2023-02-26T10:09:06;102820.97;;;2.94;56.83
72086;BME280;64750;52.134;5.424;2023-02-26T10:14:02;102832.25;;;3.01;56.75
72086;BME280;64750;52.134;5.424;2023-02-26T10:16:35;102831.38;;;3.04;56.64
72086;BME280;64750;52.134;5.424;2023-02-26T10:19:07;102834.03;;;3.05;55.57
72086;BME280;64750;52.134;5.424;2023-02-26T10:21:51;102837.50;;;3.10;56.47
72086;BME280;64750;52.134;5.424;2023-02-26T10:24:30;102838.38;;;3.14;54.60
72086;BME280;64750;52.134;5.424;2023-02-26T10:27:08;102837.50;;;3.15;55.29
72086;BME280;64750;52.134;5.424;2023-02-26T10:29:45;102839.25;;;3.19;56.02
72086;BME280;64750;52.134;5.424;2023-02-26T10:35:00;102854.00;;;3.33;56.47
72086;BME280;64750;52.134;5.424;2023-02-26T10:37:48;102860.09;;;3.36;54.36
72086;BME280;64750;52.134;5.424;2023-02-26T10:40:42;102853.16;;;3.43;54.53
72086;BME280;64750;52.134;5.424;2023-02-26T10:46:05;102849.72;;;3.52;55.42
72086;BME280;64750;52.134;5.424;2023-02-26T10:51:37;102861.88;;;3.62;54.71
72086;BME280;64750;52.134;5.424;2023-02-26T10:54:15;102858.41;;;3.74;53.85
72086;BME280;64750;52.134;5.424;2023-02-26T10:56:44;102861.00;;;3.83;52.90
72086;BME280;64750;52.134;5.424;2023-02-26T10:59:11;102861.03;;;3.89;53.15
72086;BME280;64750;52.134;5.424;2023-02-26T11:01:41;102863.63;;;3.89;53.24
72086;BME280;64750;52.134;5.424;2023-02-26T11:04:14;102858.44;;;3.92;52.86
72086;BME280;64750;52.134;5.424;2023-02-26T11:06:47;102864.50;;;3.91;53.70
72086;BME280;64750;52.134;5.424;2023-02-26T11:09:26;102867.97;;;3.95;54.03
72086;BME280;64750;52.134;5.424;2023-02-26T11:12:05;102859.28;;;4.01;54.57
72086;BME280;64750;52.134;5.424;2023-02-26T11:14:46;102861.03;;;4.05;52.57
72086;BME280;64750;52.134;5.424;2023-02-26T11:17:16;102866.22;;;4.11;50.82
72086;BME280;64750;52.134;5.424;2023-02-26T11:19:59;102861.03;;;4.17;50.49
72086;BME280;64750;52.134;5.424;2023-02-26T11:22:29;102865.34;;;4.15;51.42
72086;BME280;64750;52.134;5.424;2023-02-26T11:24:57;102861.03;;;4.16;51.97
72086;BME280;64750;52.134;5.424;2023-02-26T11:27:29;102867.97;;;4.21;52.81
72086;BME280;64750;52.134;5.424;2023-02-26T11:29:58;102868.81;;;4.26;52.48
72086;BME280;64750;52.134;5.424;2023-02-26T11:32:31;102874.03;;;4.33;51.84
72086;BME280;64750;52.134;5.424;2023-02-26T11:34:58;102877.50;;;4.38;52.41
72086;BME280;64750;52.134;5.424;2023-02-26T11:37:30;102869.69;;;4.38;52.17
72086;BME280;64750;52.134;5.424;2023-02-26T11:40:12;102874.91;;;4.35;51.83
72086;BME280;64750;52.134;5.424;2023-02-26T11:43:02;102878.38;;;4.34;52.02
72086;BME280;64750;52.134;5.424;2023-02-26T11:45:33;102879.25;;;4.25;50.93
72086;BME280;64750;52.134;5.424;2023-02-26T11:48:05;102878.38;;;4.21;51.43
72086;BME280;64750;52.134;5.424;2023-02-26T11:50:54;102878.38;;;4.27;51.34
72086;BME280;64750;52.134;5.424;2023-02-26T11:59:04;102869.69;;;4.41;51.74
72086;BME280;64750;52.134;5.424;2023-02-26T12:01:30;102869.69;;;4.44;50.97
72086;BME280;64750;52.134;5.424;2023-02-26T12:04:00;102870.56;;;4.46;51.75
72086;BME280;64750;52.134;5.424;2023-02-26T12:06:26;102873.13;;;4.52;51.59
72086;BME280;64750;52.134;5.424;2023-02-26T12:08:53;102860.97;;;4.60;50.42
72086;BME280;64750;52.134;5.424;2023-02-26T12:23:11;102852.25;;;4.71;52.48
72086;BME280;64750;52.134;5.424;2023-02-26T12:28:58;102855.72;;;4.71;53.05
72086;BME280;64750;52.134;5.424;2023-02-26T12:43:10;102855.75;;;4.67;53.40
72086;BME280;64750;52.134;5.424;2023-02-26T12:51:47;102855.69;;;4.79;52.08
72086;BME280;64750;52.134;5.424;2023-02-26T13:14:37;102858.19;;;5.02;51.75
72086;BME280;64750;52.134;5.424;2023-02-26T13:17:30;102860.78;;;5.07;51.26
72086;BME280;64750;52.134;5.424;2023-02-26T13:20:03;102860.78;;;5.07;50.38
72086;BME280;64750;52.134;5.424;2023-02-26T13:22:41;102857.34;;;5.06;50.80
72086;BME280;64750;52.134;5.424;2023-02-26T13:25:20;102858.22;;;5.01;51.22
72086;BME280;64750;52.134;5.424;2023-02-26T13:27:53;102857.38;;;4.96;51.23
72086;BME280;64750;52.134;5.424;2023-02-26T13:30:24;102846.94;;;4.99;51.38
72086;BME280;64750;52.134;5.424;2023-02-26T13:32:55;102841.72;;;5.02;51.36
72086;BME280;64750;52.134;5.424;2023-02-26T13:35:35;102844.31;;;5.06;51.68
72086;BME280;64750;52.134;5.424;2023-02-26T13:38:16;102841.69;;;5.08;50.16
72086;BME280;64750;52.134;5.424;2023-02-26T13:41:06;102844.28;;;5.08;50.64
72086;BME280;64750;52.134;5.424;2023-02-26T13:51:51;102846.00;;;5.17;50.79
72086;BME280;64750;52.134;5.424;2023-02-26T13:57:22;102846.00;;;5.12;49.92
72086;BME280;64750;52.134;5.424;2023-02-26T13:59:54;102839.03;;;5.13;49.28
72086;BME280;64750;52.134;5.424;2023-02-26T14:02:37;102835.53;;;5.15;50.44
72086;BME280;64750;52.134;5.424;2023-02-26T14:05:28;102834.69;;;5.16;51.46
72086;BME280;64750;52.134;5.424;2023-02-26T14:10:31;102835.50;;;5.21;51.97
72086;BME280;64750;52.134;5.424;2023-02-26T14:15:41;102838.13;;;5.21;52.00
72086;BME280;64750;52.134;5.424;2023-02-26T14:18:48;102836.41;;;5.19;51.84
72086;BME280;64750;52.134;5.424;2023-02-26T14:23:56;102839.91;;;5.19;51.61
72086;BME280;64750;52.134;5.424;2023-02-26T14:26:27;102852.91;;;5.18;51.79
72086;BME280;64750;52.134;5.424;2023-02-26T14:28:57;102850.31;;;5.16;50.82
72086;BME280;64750;52.134;5.424;2023-02-26T14:34:33;102858.16;;;5.15;51.16
72086;BME280;64750;52.134;5.424;2023-02-26T14:37:03;102853.81;;;5.17;50.31
72086;BME280;64750;52.134;5.424;2023-02-26T14:42:07;102852.03;;;5.23;50.63
72086;BME280;64750;52.134;5.424;2023-02-26T14:44:40;102846.81;;;5.25;50.82
72086;BME280;64750;52.134;5.424;2023-02-26T14:47:08;102845.03;;;5.25;49.75
72086;BME280;64750;52.134;5.424;2023-02-26T14:49:37;102851.16;;;5.26;50.98
72086;BME280;64750;52.134;5.424;2023-02-26T14:55:01;102850.25;;;5.29;49.55
72086;BME280;64750;52.134;5.424;2023-02-26T14:57:45;102845.06;;;5.29;50.39
72086;BME280;64750;52.134;5.424;2023-02-26T15:03:18;102855.44;;;5.32;50.24
72086;BME280;64750;52.134;5.424;2023-02-26T15:08:28;102856.34;;;5.29;51.12
72086;BME280;64750;52.134;5.424;2023-02-26T15:13:58;102864.19;;;5.21;51.88
72086;BME280;64750;52.134;5.424;2023-02-26T15:16:36;102852.03;;;5.20;52.28
72086;BME280;64750;52.134;5.424;2023-02-26T15:21:57;102861.59;;;5.21;52.13
72086;BME280;64750;52.134;5.424;2023-02-26T15:24:27;102855.53;;;5.21;50.79
72086;BME280;64750;52.134;5.424;2023-02-26T15:26:58;102858.13;;;5.19;51.70
72086;BME280;64750;52.134;5.424;2023-02-26T15:29:29;102859.84;;;5.20;51.12
72086;BME280;64750;52.134;5.424;2023-02-26T15:31:59;102859.88;;;5.19;51.45
72086;BME280;64750;52.134;5.424;2023-02-26T15:34:28;102860.75;;;5.19;51.92
72086;BME280;64750;52.134;5.424;2023-02-26T15:36:56;102865.97;;;5.19;52.24
72086;BME280;64750;52.134;5.424;2023-02-26T15:39:23;102868.56;;;5.21;52.67
72086;BME280;64750;52.134;5.424;2023-02-26T15:41:52;102865.94;;;5.21;52.25
72086;BME280;64750;52.134;5.424;2023-02-26T15:44:29;102862.44;;;5.20;52.26
72086;BME280;64750;52.134;5.424;2023-02-26T15:47:00;102874.63;;;5.21;52.08
72086;BME280;64750;52.134;5.424;2023-02-26T15:49:37;102865.97;;;5.19;51.38
72086;BME280;64750;52.134;5.424;2023-02-26T15:52:06;102866.84;;;5.17;51.45
72086;BME280;64750;52.134;5.424;2023-02-26T15:54:45;102867.69;;;5.17;51.31
72086;BME280;64750;52.134;5.424;2023-02-26T15:57:13;102875.53;;;5.17;51.43